sensor_id;sensor_type;location;lat;lon;timestamp;P1;durP1;ratioP1;P2;durP2;ratioP2
45198;SDS011;30941;46.422;18.772;2023-03-01T00:00:10;25.80;;;14.60;;
45198;SDS011;30941;46.422;18.772;2023-03-01T00:02:36;23.85;;;14.35;;
45198;SDS011;30941;46.422;18.772;2023-03-01T00:05:02;24.85;;;15.40;;
45198;SDS011;30941;46.422;18.772;2023-03-01T00:07:28;25.17;;;14.68;;
45198;SDS011;30941;46.422;18.772;2023-03-01T00:09:53;29.20;;;15.27;;
45198;SDS011;30941;46.422;18.772;2023-03-01T00:12:19;26.25;;;15.18;;
45198;SDS011;30941;46.422;18.772;2023-03-01T00:14:44;24.00;;;15.15;;
45198;SDS011;30941;46.422;18.772;2023-03-01T00:17:10;28.92;;;15.38;;
45198;SDS011;30941;46.422;18.772;2023-03-01T00:19:35;26.70;;;15.18;;
45198;SDS011;30941;46.422;18.772;2023-03-01T00:22:02;30.17;;;16.42;;
45198;SDS011;30941;46.422;18.772;2023-03-01T00:24:27;29.95;;;16.70;;
45198;SDS011;30941;46.422;18.772;2023-03-01T00:26:53;26.95;;;17.00;;
45198;SDS011;30941;46.422;18.772;2023-03-01T00:29:21;27.33;;;16.10;;
45198;SDS011;30941;46.422;18.772;2023-03-01T00:31:47;30.30;;;16.45;;
45198;SDS011;30941;46.422;18.772;2023-03-01T00:34:12;31.95;;;17.63;;
45198;SDS011;30941;46.422;18.772;2023-03-01T00:36:38;31.30;;;18.00;;
45198;SDS011;30941;46.422;18.772;2023-03-01T00:39:04;33.05;;;18.27;;
45198;SDS011;30941;46.422;18.772;2023-03-01T00:41:30;37.78;;;18.55;;
45198;SDS011;30941;46.422;18.772;2023-03-01T00:43:56;28.48;;;16.85;;
45198;SDS011;30941;46.422;18.772;2023-03-01T00:46:22;29.70;;;17.33;;
45198;SDS011;30941;46.422;18.772;2023-03-01T00:48:50;29.52;;;17.25;;
45198;SDS011;30941;46.422;18.772;2023-03-01T00:53:44;26.58;;;15.32;;
45198;SDS011;30941;46.422;18.772;2023-03-01T00:56:10;31.60;;;17.13;;
45198;SDS011;30941;46.422;18.772;2023-03-01T00:58:36;26.77;;;16.27;;
45198;SDS011;30941;46.422;18.772;2023-03-01T01:01:09;28.92;;;16.42;;
45198;SDS011;30941;46.422;18.772;2023-03-01T01:03:42;29.38;;;16.85;;
45198;SDS011;30941;46.422;18.772;2023-03-01T01:06:14;29.88;;;16.27;;
45198;SDS011;30941;46.422;18.772;2023-03-01T01:08:44;32.33;;;17.52;;
45198;SDS011;30941;46.422;18.772;2023-03-01T01:11:10;31.42;;;17.42;;
45198;SDS011;30941;46.422;18.772;2023-03-01T01:13:36;31.05;;;17.48;;
45198;SDS011;30941;46.422;18.772;2023-03-01T01:16:02;38.63;;;18.75;;
45198;SDS011;30941;46.422;18.772;2023-03-01T01:18:28;33.95;;;18.67;;
45198;SDS011;30941;46.422;18.772;2023-03-01T01:20:53;35.67;;;18.67;;
45198;SDS011;30941;46.422;18.772;2023-03-01T01:23:19;30.70;;;17.05;;
45198;SDS011;30941;46.422;18.772;2023-03-01T01:25:44;34.75;;;19.73;;
45198;SDS011;30941;46.422;18.772;2023-03-01T01:28:10;35.05;;;18.67;;
45198;SDS011;30941;46.422;18.772;2023-03-01T01:30:35;33.45;;;17.95;;
45198;SDS011;30941;46.422;18.772;2023-03-01T01:33:00;35.75;;;19.20;;
45198;SDS011;30941;46.422;18.772;2023-03-01T01:35:27;35.80;;;18.70;;
45198;SDS011;30941;46.422;18.772;2023-03-01T01:37:52;39.63;;;19.17;;
45198;SDS011;30941;46.422;18.772;2023-03-01T01:40:17;42.70;;;19.35;;
45198;SDS011;30941;46.422;18.772;2023-03-01T01:42:43;38.15;;;18.52;;
45198;SDS011;30941;46.422;18.772;2023-03-01T01:45:24;35.25;;;18.17;;
45198;SDS011;30941;46.422;18.772;2023-03-01T01:47:52;32.33;;;17.13;;
45198;SDS011;30941;46.422;18.772;2023-03-01T01:50:20;33.20;;;18.17;;
45198;SDS011;30941;46.422;18.772;2023-03-01T01:52:46;32.75;;;17.95;;
45198;SDS011;30941;46.422;18.772;2023-03-01T01:55:18;34.83;;;19.23;;
45198;SDS011;30941;46.422;18.772;2023-03-01T01:57:50;30.27;;;17.43;;
45198;SDS011;30941;46.422;18.772;2023-03-01T02:00:22;30.27;;;17.77;;
45198;SDS011;30941;46.422;18.772;2023-03-01T02:02:50;33.58;;;18.60;;
45198;SDS011;30941;46.422;18.772;2023-03-01T02:05:22;33.90;;;18.15;;
45198;SDS011;30941;46.422;18.772;2023-03-01T02:07:52;37.50;;;19.25;;
45198;SDS011;30941;46.422;18.772;2023-03-01T02:10:17;42.28;;;19.63;;
45198;SDS011;30941;46.422;18.772;2023-03-01T02:12:43;32.92;;;18.48;;
45198;SDS011;30941;46.422;18.772;2023-03-01T02:15:09;32.90;;;19.48;;
45198;SDS011;30941;46.422;18.772;2023-03-01T02:17:34;33.78;;;17.50;;
45198;SDS011;30941;46.422;18.772;2023-03-01T02:20:10;30.70;;;17.58;;
45198;SDS011;30941;46.422;18.772;2023-03-01T02:22:42;34.97;;;18.60;;
45198;SDS011;30941;46.422;18.772;2023-03-01T02:25:26;32.45;;;18.00;;
45198;SDS011;30941;46.422;18.772;2023-03-01T02:30:25;38.80;;;18.88;;
45198;SDS011;30941;46.422;18.772;2023-03-01T02:32:51;34.42;;;19.05;;
45198;SDS011;30941;46.422;18.772;2023-03-01T02:35:18;33.38;;;18.23;;
45198;SDS011;30941;46.422;18.772;2023-03-01T02:37:44;34.30;;;18.80;;
45198;SDS011;30941;46.422;18.772;2023-03-01T02:40:11;39.03;;;21.60;;
45198;SDS011;30941;46.422;18.772;2023-03-01T02:42:41;37.63;;;20.65;;
45198;SDS011;30941;46.422;18.772;2023-03-01T02:45:12;35.40;;;18.98;;
45198;SDS011;30941;46.422;18.772;2023-03-01T02:47:37;38.22;;;18.95;;
45198;SDS011;30941;46.422;18.772;2023-03-01T02:50:05;35.75;;;20.33;;
45198;SDS011;30941;46.422;18.772;2023-03-01T02:55:11;32.65;;;19.25;;
45198;SDS011;30941;46.422;18.772;2023-03-01T02:57:39;39.80;;;18.85;;
45198;SDS011;30941;46.422;18.772;2023-03-01T03:00:14;34.97;;;19.02;;
45198;SDS011;30941;46.422;18.772;2023-03-01T03:02:44;31.92;;;18.20;;
45198;SDS011;30941;46.422;18.772;2023-03-01T03:05:12;37.58;;;18.75;;
45198;SDS011;30941;46.422;18.772;2023-03-01T03:07:42;33.65;;;17.55;;
45198;SDS011;30941;46.422;18.772;2023-03-01T03:10:11;36.78;;;18.88;;
45198;SDS011;30941;46.422;18.772;2023-03-01T03:12:41;34.17;;;18.60;;
45198;SDS011;30941;46.422;18.772;2023-03-01T03:15:08;35.58;;;19.08;;
45198;SDS011;30941;46.422;18.772;2023-03-01T03:17:37;33.28;;;18.63;;
45198;SDS011;30941;46.422;18.772;2023-03-01T03:20:04;32.63;;;17.70;;
45198;SDS011;30941;46.422;18.772;2023-03-01T03:22:31;32.92;;;19.77;;
45198;SDS011;30941;46.422;18.772;2023-03-01T03:24:59;35.03;;;17.67;;
45198;SDS011;30941;46.422;18.772;2023-03-01T03:27:24;31.67;;;17.33;;
45198;SDS011;30941;46.422;18.772;2023-03-01T03:29:50;34.88;;;19.67;;
45198;SDS011;30941;46.422;18.772;2023-03-01T03:32:15;31.33;;;17.63;;
45198;SDS011;30941;46.422;18.772;2023-03-01T03:34:40;33.63;;;18.45;;
45198;SDS011;30941;46.422;18.772;2023-03-01T03:37:06;35.45;;;18.67;;
45198;SDS011;30941;46.422;18.772;2023-03-01T03:39:51;29.00;;;16.52;;
45198;SDS011;30941;46.422;18.772;2023-03-01T03:42:19;35.05;;;19.10;;
45198;SDS011;30941;46.422;18.772;2023-03-01T03:44:46;30.42;;;17.17;;
45198;SDS011;30941;46.422;18.772;2023-03-01T03:47:12;33.30;;;18.00;;
45198;SDS011;30941;46.422;18.772;2023-03-01T03:49:37;32.40;;;18.70;;
45198;SDS011;30941;46.422;18.772;2023-03-01T03:52:02;35.35;;;18.42;;
45198;SDS011;30941;46.422;18.772;2023-03-01T03:54:28;37.78;;;18.50;;
45198;SDS011;30941;46.422;18.772;2023-03-01T03:56:53;37.25;;;20.38;;
45198;SDS011;30941;46.422;18.772;2023-03-01T03:59:19;33.30;;;18.45;;
45198;SDS011;30941;46.422;18.772;2023-03-01T04:01:44;35.38;;;18.77;;
45198;SDS011;30941;46.422;18.772;2023-03-01T04:04:10;29.80;;;18.75;;
45198;SDS011;30941;46.422;18.772;2023-03-01T04:06:35;30.73;;;18.05;;
45198;SDS011;30941;46.422;18.772;2023-03-01T04:09:00;35.45;;;19.08;;
45198;SDS011;30941;46.422;18.772;2023-03-01T04:11:27;34.90;;;19.80;;
45198;SDS011;30941;46.422;18.772;2023-03-01T04:13:53;37.88;;;19.02;;
45198;SDS011;30941;46.422;18.772;2023-03-01T04:16:21;40.05;;;20.70;;
45198;SDS011;30941;46.422;18.772;2023-03-01T04:18:46;34.55;;;20.20;;
45198;SDS011;30941;46.422;18.772;2023-03-01T04:21:12;40.20;;;21.00;;
45198;SDS011;30941;46.422;18.772;2023-03-01T04:23:38;40.85;;;19.08;;
45198;SDS011;30941;46.422;18.772;2023-03-01T04:26:05;34.83;;;18.92;;
45198;SDS011;30941;46.422;18.772;2023-03-01T04:28:34;39.05;;;20.95;;
45198;SDS011;30941;46.422;18.772;2023-03-01T04:31:08;39.58;;;20.88;;
45198;SDS011;30941;46.422;18.772;2023-03-01T04:33:41;42.90;;;22.17;;
45198;SDS011;30941;46.422;18.772;2023-03-01T04:36:07;45.95;;;22.90;;
45198;SDS011;30941;46.422;18.772;2023-03-01T04:38:34;41.78;;;21.40;;
45198;SDS011;30941;46.422;18.772;2023-03-01T04:41:02;41.47;;;23.23;;
45198;SDS011;30941;46.422;18.772;2023-03-01T04:43:29;38.88;;;21.13;;
45198;SDS011;30941;46.422;18.772;2023-03-01T04:45:54;42.40;;;22.63;;
45198;SDS011;30941;46.422;18.772;2023-03-01T04:48:19;44.50;;;23.83;;
45198;SDS011;30941;46.422;18.772;2023-03-01T04:50:45;46.88;;;24.08;;
45198;SDS011;30941;46.422;18.772;2023-03-01T04:53:10;49.00;;;24.55;;
45198;SDS011;30941;46.422;18.772;2023-03-01T04:55:36;50.17;;;25.88;;
45198;SDS011;30941;46.422;18.772;2023-03-01T04:58:01;49.00;;;25.05;;
45198;SDS011;30941;46.422;18.772;2023-03-01T05:00:26;44.40;;;24.20;;
45198;SDS011;30941;46.422;18.772;2023-03-01T05:02:53;50.17;;;25.92;;
45198;SDS011;30941;46.422;18.772;2023-03-01T05:07:50;51.20;;;24.92;;
45198;SDS011;30941;46.422;18.772;2023-03-01T05:10:17;48.53;;;25.58;;
45198;SDS011;30941;46.422;18.772;2023-03-01T05:12:42;45.97;;;25.10;;
45198;SDS011;30941;46.422;18.772;2023-03-01T05:15:07;43.42;;;23.15;;
45198;SDS011;30941;46.422;18.772;2023-03-01T05:17:33;49.40;;;25.95;;
45198;SDS011;30941;46.422;18.772;2023-03-01T05:19:59;49.38;;;25.63;;
45198;SDS011;30941;46.422;18.772;2023-03-01T05:22:25;47.10;;;24.73;;
45198;SDS011;30941;46.422;18.772;2023-03-01T05:24:51;41.90;;;23.23;;
45198;SDS011;30941;46.422;18.772;2023-03-01T05:27:17;40.97;;;23.27;;
45198;SDS011;30941;46.422;18.772;2023-03-01T05:29:42;42.95;;;21.92;;
45198;SDS011;30941;46.422;18.772;2023-03-01T05:32:08;38.63;;;22.30;;
45198;SDS011;30941;46.422;18.772;2023-03-01T05:34:35;47.05;;;22.90;;
45198;SDS011;30941;46.422;18.772;2023-03-01T05:37:01;45.33;;;22.92;;
45198;SDS011;30941;46.422;18.772;2023-03-01T05:39:27;46.05;;;23.92;;
45198;SDS011;30941;46.422;18.772;2023-03-01T05:41:54;52.83;;;25.92;;
45198;SDS011;30941;46.422;18.772;2023-03-01T05:44:20;54.15;;;25.92;;
45198;SDS011;30941;46.422;18.772;2023-03-01T05:46:46;50.95;;;27.63;;
45198;SDS011;30941;46.422;18.772;2023-03-01T05:49:12;56.50;;;27.35;;
45198;SDS011;30941;46.422;18.772;2023-03-01T05:51:39;52.97;;;26.48;;
45198;SDS011;30941;46.422;18.772;2023-03-01T05:54:06;52.25;;;28.02;;
45198;SDS011;30941;46.422;18.772;2023-03-01T05:56:33;53.75;;;26.23;;
45198;SDS011;30941;46.422;18.772;2023-03-01T05:58:59;53.03;;;27.48;;
45198;SDS011;30941;46.422;18.772;2023-03-01T06:01:25;50.15;;;27.30;;
45198;SDS011;30941;46.422;18.772;2023-03-01T06:03:50;49.45;;;25.55;;
45198;SDS011;30941;46.422;18.772;2023-03-01T06:06:16;47.80;;;25.05;;
45198;SDS011;30941;46.422;18.772;2023-03-01T06:08:41;48.05;;;25.77;;
45198;SDS011;30941;46.422;18.772;2023-03-01T06:11:07;45.10;;;25.33;;
45198;SDS011;30941;46.422;18.772;2023-03-01T06:13:32;58.05;;;24.27;;
45198;SDS011;30941;46.422;18.772;2023-03-01T06:15:58;47.20;;;23.88;;
45198;SDS011;30941;46.422;18.772;2023-03-01T06:18:23;44.28;;;24.42;;
45198;SDS011;30941;46.422;18.772;2023-03-01T06:20:52;38.75;;;23.48;;
45198;SDS011;30941;46.422;18.772;2023-03-01T06:23:18;44.08;;;23.60;;
45198;SDS011;30941;46.422;18.772;2023-03-01T06:25:44;44.67;;;24.00;;
45198;SDS011;30941;46.422;18.772;2023-03-01T06:28:09;40.85;;;23.73;;
45198;SDS011;30941;46.422;18.772;2023-03-01T06:30:34;42.97;;;23.70;;
45198;SDS011;30941;46.422;18.772;2023-03-01T06:33:00;43.33;;;22.95;;
45198;SDS011;30941;46.422;18.772;2023-03-01T06:35:26;37.80;;;22.75;;
45198;SDS011;30941;46.422;18.772;2023-03-01T06:37:54;43.30;;;23.60;;
45198;SDS011;30941;46.422;18.772;2023-03-01T06:40:20;39.78;;;22.08;;
45198;SDS011;30941;46.422;18.772;2023-03-01T06:42:49;41.70;;;23.30;;
45198;SDS011;30941;46.422;18.772;2023-03-01T06:45:15;42.53;;;23.20;;
45198;SDS011;30941;46.422;18.772;2023-03-01T06:47:41;35.20;;;20.77;;
45198;SDS011;30941;46.422;18.772;2023-03-01T06:50:07;43.00;;;21.02;;
45198;SDS011;30941;46.422;18.772;2023-03-01T06:52:33;38.53;;;20.88;;
45198;SDS011;30941;46.422;18.772;2023-03-01T06:54:59;35.05;;;19.88;;
45198;SDS011;30941;46.422;18.772;2023-03-01T06:57:24;32.90;;;19.88;;
45198;SDS011;30941;46.422;18.772;2023-03-01T06:59:50;33.90;;;20.42;;
45198;SDS011;30941;46.422;18.772;2023-03-01T07:02:15;34.33;;;20.35;;
45198;SDS011;30941;46.422;18.772;2023-03-01T07:04:41;36.95;;;22.17;;
45198;SDS011;30941;46.422;18.772;2023-03-01T07:07:07;38.40;;;19.50;;
45198;SDS011;30941;46.422;18.772;2023-03-01T07:09:32;32.28;;;20.08;;
45198;SDS011;30941;46.422;18.772;2023-03-01T07:11:58;34.28;;;20.02;;
45198;SDS011;30941;46.422;18.772;2023-03-01T07:14:23;38.95;;;21.50;;
45198;SDS011;30941;46.422;18.772;2023-03-01T07:16:52;42.80;;;22.75;;
45198;SDS011;30941;46.422;18.772;2023-03-01T07:19:18;42.55;;;22.80;;
45198;SDS011;30941;46.422;18.772;2023-03-01T07:21:43;40.30;;;22.80;;
45198;SDS011;30941;46.422;18.772;2023-03-01T07:24:09;46.50;;;23.92;;
45198;SDS011;30941;46.422;18.772;2023-03-01T07:26:35;39.13;;;23.38;;
45198;SDS011;30941;46.422;18.772;2023-03-01T07:29:04;40.33;;;21.98;;
45198;SDS011;30941;46.422;18.772;2023-03-01T07:31:30;40.25;;;21.77;;
45198;SDS011;30941;46.422;18.772;2023-03-01T07:33:56;37.30;;;20.48;;
45198;SDS011;30941;46.422;18.772;2023-03-01T07:36:22;37.13;;;20.05;;
45198;SDS011;30941;46.422;18.772;2023-03-01T07:38:47;35.63;;;20.33;;
45198;SDS011;30941;46.422;18.772;2023-03-01T07:41:13;36.33;;;20.67;;
45198;SDS011;30941;46.422;18.772;2023-03-01T07:43:39;36.58;;;21.30;;
45198;SDS011;30941;46.422;18.772;2023-03-01T07:46:04;36.58;;;20.02;;
45198;SDS011;30941;46.422;18.772;2023-03-01T07:48:31;37.90;;;19.48;;
45198;SDS011;30941;46.422;18.772;2023-03-01T07:51:01;32.08;;;17.88;;
45198;SDS011;30941;46.422;18.772;2023-03-01T07:53:27;34.85;;;19.55;;
45198;SDS011;30941;46.422;18.772;2023-03-01T07:56:03;32.33;;;19.58;;
45198;SDS011;30941;46.422;18.772;2023-03-01T07:58:37;28.55;;;16.95;;
45198;SDS011;30941;46.422;18.772;2023-03-01T08:01:03;39.13;;;19.02;;
45198;SDS011;30941;46.422;18.772;2023-03-01T08:03:29;34.00;;;19.65;;
45198;SDS011;30941;46.422;18.772;2023-03-01T08:05:55;32.33;;;18.10;;
45198;SDS011;30941;46.422;18.772;2023-03-01T08:08:20;29.20;;;17.52;;
45198;SDS011;30941;46.422;18.772;2023-03-01T08:10:46;31.50;;;17.13;;
45198;SDS011;30941;46.422;18.772;2023-03-01T08:13:11;28.50;;;18.00;;
45198;SDS011;30941;46.422;18.772;2023-03-01T08:15:37;35.63;;;19.17;;
45198;SDS011;30941;46.422;18.772;2023-03-01T08:18:02;31.02;;;16.63;;
45198;SDS011;30941;46.422;18.772;2023-03-01T08:20:28;32.75;;;18.15;;
45198;SDS011;30941;46.422;18.772;2023-03-01T08:22:53;31.45;;;17.95;;
45198;SDS011;30941;46.422;18.772;2023-03-01T08:25:18;30.10;;;17.00;;
45198;SDS011;30941;46.422;18.772;2023-03-01T08:27:44;31.23;;;17.13;;
45198;SDS011;30941;46.422;18.772;2023-03-01T08:30:09;32.42;;;17.75;;
45198;SDS011;30941;46.422;18.772;2023-03-01T08:32:38;30.58;;;17.67;;
45198;SDS011;30941;46.422;18.772;2023-03-01T08:35:04;30.25;;;17.38;;
45198;SDS011;30941;46.422;18.772;2023-03-01T08:37:30;39.03;;;18.45;;
45198;SDS011;30941;46.422;18.772;2023-03-01T08:39:57;33.88;;;17.77;;
45198;SDS011;30941;46.422;18.772;2023-03-01T08:42:23;36.08;;;19.58;;
45198;SDS011;30941;46.422;18.772;2023-03-01T08:44:49;28.67;;;17.45;;
45198;SDS011;30941;46.422;18.772;2023-03-01T08:47:14;33.28;;;19.77;;
45198;SDS011;30941;46.422;18.772;2023-03-01T08:49:39;29.08;;;17.98;;
45198;SDS011;30941;46.422;18.772;2023-03-01T08:52:05;32.17;;;17.92;;
45198;SDS011;30941;46.422;18.772;2023-03-01T08:54:30;33.83;;;19.85;;
45198;SDS011;30941;46.422;18.772;2023-03-01T08:56:56;30.80;;;18.45;;
45198;SDS011;30941;46.422;18.772;2023-03-01T08:59:24;36.80;;;19.00;;
45198;SDS011;30941;46.422;18.772;2023-03-01T09:01:51;29.55;;;18.67;;
45198;SDS011;30941;46.422;18.772;2023-03-01T09:04:16;30.33;;;17.75;;
45198;SDS011;30941;46.422;18.772;2023-03-01T09:06:42;28.65;;;17.23;;
45198;SDS011;30941;46.422;18.772;2023-03-01T09:09:12;31.10;;;17.60;;
45198;SDS011;30941;46.422;18.772;2023-03-01T09:11:39;28.27;;;17.30;;
45198;SDS011;30941;46.422;18.772;2023-03-01T09:14:05;30.55;;;17.38;;
45198;SDS011;30941;46.422;18.772;2023-03-01T09:16:31;33.38;;;18.35;;
45198;SDS011;30941;46.422;18.772;2023-03-01T09:19:00;30.10;;;18.55;;
45198;SDS011;30941;46.422;18.772;2023-03-01T09:21:26;28.42;;;16.88;;
45198;SDS011;30941;46.422;18.772;2023-03-01T09:23:51;30.00;;;18.05;;
45198;SDS011;30941;46.422;18.772;2023-03-01T09:26:19;29.17;;;17.67;;
45198;SDS011;30941;46.422;18.772;2023-03-01T09:28:47;30.98;;;18.08;;
45198;SDS011;30941;46.422;18.772;2023-03-01T09:31:16;28.42;;;17.00;;
45198;SDS011;30941;46.422;18.772;2023-03-01T09:33:44;28.60;;;16.55;;
45198;SDS011;30941;46.422;18.772;2023-03-01T09:36:12;27.25;;;16.70;;
45198;SDS011;30941;46.422;18.772;2023-03-01T09:38:38;30.27;;;16.58;;
45198;SDS011;30941;46.422;18.772;2023-03-01T09:41:11;25.70;;;15.35;;
45198;SDS011;30941;46.422;18.772;2023-03-01T09:43:52;26.42;;;14.43;;
45198;SDS011;30941;46.422;18.772;2023-03-01T09:46:21;27.58;;;15.75;;
45198;SDS011;30941;46.422;18.772;2023-03-01T09:48:58;29.52;;;16.35;;
45198;SDS011;30941;46.422;18.772;2023-03-01T09:51:35;29.25;;;16.27;;
45198;SDS011;30941;46.422;18.772;2023-03-01T09:54:05;26.70;;;15.20;;
45198;SDS011;30941;46.422;18.772;2023-03-01T09:59:28;29.95;;;16.05;;
45198;SDS011;30941;46.422;18.772;2023-03-01T10:07:21;34.55;;;18.08;;
45198;SDS011;30941;46.422;18.772;2023-03-01T10:10:19;30.55;;;18.13;;
45198;SDS011;30941;46.422;18.772;2023-03-01T10:12:58;33.03;;;18.63;;
45198;SDS011;30941;46.422;18.772;2023-03-01T10:15:37;27.77;;;16.75;;
45198;SDS011;30941;46.422;18.772;2023-03-01T10:18:10;33.47;;;18.08;;
45198;SDS011;30941;46.422;18.772;2023-03-01T10:23:26;26.13;;;14.77;;
45198;SDS011;30941;46.422;18.772;2023-03-01T10:28:45;27.73;;;17.42;;
45198;SDS011;30941;46.422;18.772;2023-03-01T10:31:13;30.17;;;17.63;;
45198;SDS011;30941;46.422;18.772;2023-03-01T10:33:40;33.80;;;19.13;;
45198;SDS011;30941;46.422;18.772;2023-03-01T10:36:06;48.70;;;24.02;;
45198;SDS011;30941;46.422;18.772;2023-03-01T10:38:43;39.10;;;20.88;;
45198;SDS011;30941;46.422;18.772;2023-03-01T10:41:15;32.67;;;18.35;;
45198;SDS011;30941;46.422;18.772;2023-03-01T10:43:44;34.97;;;19.38;;
45198;SDS011;30941;46.422;18.772;2023-03-01T10:46:29;45.90;;;21.20;;
45198;SDS011;30941;46.422;18.772;2023-03-01T10:51:45;32.72;;;17.92;;
45198;SDS011;30941;46.422;18.772;2023-03-01T10:54:28;30.38;;;16.50;;
45198;SDS011;30941;46.422;18.772;2023-03-01T10:56:56;26.83;;;16.03;;
45198;SDS011;30941;46.422;18.772;2023-03-01T11:02:04;27.20;;;15.75;;
45198;SDS011;30941;46.422;18.772;2023-03-01T11:04:29;23.83;;;14.15;;
45198;SDS011;30941;46.422;18.772;2023-03-01T11:06:59;26.35;;;15.60;;
45198;SDS011;30941;46.422;18.772;2023-03-01T11:09:25;31.73;;;17.20;;
45198;SDS011;30941;46.422;18.772;2023-03-01T11:11:53;30.17;;;17.67;;
45198;SDS011;30941;46.422;18.772;2023-03-01T11:14:35;26.42;;;15.05;;
45198;SDS011;30941;46.422;18.772;2023-03-01T11:17:10;25.65;;;15.43;;
45198;SDS011;30941;46.422;18.772;2023-03-01T11:19:38;23.40;;;14.45;;
45198;SDS011;30941;46.422;18.772;2023-03-01T11:22:11;23.48;;;14.90;;
45198;SDS011;30941;46.422;18.772;2023-03-01T11:24:40;35.53;;;18.17;;
45198;SDS011;30941;46.422;18.772;2023-03-01T11:29:52;29.70;;;16.25;;
45198;SDS011;30941;46.422;18.772;2023-03-01T11:32:18;25.95;;;15.20;;
45198;SDS011;30941;46.422;18.772;2023-03-01T11:35:31;28.13;;;16.23;;
45198;SDS011;30941;46.422;18.772;2023-03-01T11:37:37;28.35;;;15.57;;
45198;SDS011;30941;46.422;18.772;2023-03-01T11:45:13;27.10;;;15.63;;
45198;SDS011;30941;46.422;18.772;2023-03-01T11:48:23;27.25;;;15.70;;
45198;SDS011;30941;46.422;18.772;2023-03-01T11:50:47;24.63;;;15.73;;
45198;SDS011;30941;46.422;18.772;2023-03-01T11:53:19;25.27;;;14.80;;
45198;SDS011;30941;46.422;18.772;2023-03-01T11:58:40;30.52;;;16.67;;
45198;SDS011;30941;46.422;18.772;2023-03-01T12:01:26;25.67;;;15.52;;
45198;SDS011;30941;46.422;18.772;2023-03-01T12:06:50;23.30;;;14.32;;
45198;SDS011;30941;46.422;18.772;2023-03-01T12:19:51;25.13;;;15.48;;
45198;SDS011;30941;46.422;18.772;2023-03-01T12:25:30;25.42;;;14.45;;
45198;SDS011;30941;46.422;18.772;2023-03-01T12:28:27;27.88;;;14.10;;
45198;SDS011;30941;46.422;18.772;2023-03-01T12:39:29;21.25;;;13.18;;
45198;SDS011;30941;46.422;18.772;2023-03-01T12:45:14;21.73;;;12.60;;
45198;SDS011;30941;46.422;18.772;2023-03-01T12:50:22;20.80;;;12.68;;
45198;SDS011;30941;46.422;18.772;2023-03-01T12:52:53;19.10;;;12.73;;
45198;SDS011;30941;46.422;18.772;2023-03-01T12:58:01;23.70;;;15.25;;
45198;SDS011;30941;46.422;18.772;2023-03-01T13:02:59;25.98;;;15.00;;
45198;SDS011;30941;46.422;18.772;2023-03-01T13:05:34;23.45;;;14.65;;
45198;SDS011;30941;46.422;18.772;2023-03-01T13:08:27;21.77;;;13.68;;
45198;SDS011;30941;46.422;18.772;2023-03-01T13:11:19;19.15;;;11.23;;
45198;SDS011;30941;46.422;18.772;2023-03-01T13:13:46;30.52;;;17.25;;
45198;SDS011;30941;46.422;18.772;2023-03-01T13:19:12;39.50;;;21.67;;
45198;SDS011;30941;46.422;18.772;2023-03-01T13:21:40;26.65;;;15.35;;
45198;SDS011;30941;46.422;18.772;2023-03-01T13:27:09;20.25;;;13.57;;
45198;SDS011;30941;46.422;18.772;2023-03-01T13:34:57;24.30;;;14.70;;
45198;SDS011;30941;46.422;18.772;2023-03-01T13:37:24;17.45;;;11.52;;
45198;SDS011;30941;46.422;18.772;2023-03-01T13:39:58;19.60;;;12.85;;
45198;SDS011;30941;46.422;18.772;2023-03-01T13:42:31;22.38;;;13.93;;
45198;SDS011;30941;46.422;18.772;2023-03-01T13:47:47;25.63;;;13.48;;
45198;SDS011;30941;46.422;18.772;2023-03-01T13:50:19;23.35;;;14.02;;
45198;SDS011;30941;46.422;18.772;2023-03-01T13:52:48;21.73;;;13.80;;
45198;SDS011;30941;46.422;18.772;2023-03-01T13:55:59;23.30;;;14.65;;
45198;SDS011;30941;46.422;18.772;2023-03-01T13:58:15;24.08;;;15.20;;
45198;SDS011;30941;46.422;18.772;2023-03-01T14:00:57;23.52;;;14.70;;
45198;SDS011;30941;46.422;18.772;2023-03-01T14:03:23;20.85;;;13.35;;
45198;SDS011;30941;46.422;18.772;2023-03-01T14:08:38;21.65;;;13.30;;
45198;SDS011;30941;46.422;18.772;2023-03-01T14:18:38;18.23;;;11.98;;
45198;SDS011;30941;46.422;18.772;2023-03-01T14:21:12;20.20;;;13.18;;
45198;SDS011;30941;46.422;18.772;2023-03-01T14:23:39;23.30;;;11.95;;
45198;SDS011;30941;46.422;18.772;2023-03-01T14:26:05;27.48;;;14.60;;
45198;SDS011;30941;46.422;18.772;2023-03-01T14:28:31;24.05;;;13.43;;
45198;SDS011;30941;46.422;18.772;2023-03-01T14:31:00;20.55;;;13.85;;
45198;SDS011;30941;46.422;18.772;2023-03-01T14:36:00;25.95;;;12.68;;
45198;SDS011;30941;46.422;18.772;2023-03-01T14:41:08;19.80;;;12.38;;
45198;SDS011;30941;46.422;18.772;2023-03-01T14:43:34;26.92;;;12.88;;
45198;SDS011;30941;46.422;18.772;2023-03-01T14:46:00;19.63;;;13.15;;
45198;SDS011;30941;46.422;18.772;2023-03-01T14:48:26;24.02;;;14.00;;
45198;SDS011;30941;46.422;18.772;2023-03-01T14:50:53;28.73;;;16.60;;
45198;SDS011;30941;46.422;18.772;2023-03-01T14:53:20;24.88;;;13.38;;
45198;SDS011;30941;46.422;18.772;2023-03-01T14:55:53;22.73;;;13.50;;
45198;SDS011;30941;46.422;18.772;2023-03-01T14:58:27;20.35;;;12.98;;
45198;SDS011;30941;46.422;18.772;2023-03-01T15:00:57;22.45;;;13.70;;
45198;SDS011;30941;46.422;18.772;2023-03-01T15:06:00;21.60;;;13.57;;
45198;SDS011;30941;46.422;18.772;2023-03-01T15:08:26;22.52;;;14.38;;
45198;SDS011;30941;46.422;18.772;2023-03-01T15:13:38;20.90;;;13.43;;
45198;SDS011;30941;46.422;18.772;2023-03-01T15:16:05;27.30;;;15.10;;
45198;SDS011;30941;46.422;18.772;2023-03-01T15:18:35;22.92;;;14.25;;
45198;SDS011;30941;46.422;18.772;2023-03-01T15:21:18;27.30;;;16.00;;
45198;SDS011;30941;46.422;18.772;2023-03-01T15:23:48;29.27;;;15.57;;
45198;SDS011;30941;46.422;18.772;2023-03-01T15:26:27;25.50;;;16.42;;
45198;SDS011;30941;46.422;18.772;2023-03-01T15:28:55;26.77;;;16.73;;
45198;SDS011;30941;46.422;18.772;2023-03-01T15:31:33;26.13;;;15.93;;
45198;SDS011;30941;46.422;18.772;2023-03-01T15:34:43;24.67;;;14.20;;
45198;SDS011;30941;46.422;18.772;2023-03-01T15:36:51;23.17;;;14.07;;
45198;SDS011;30941;46.422;18.772;2023-03-01T15:45:06;25.27;;;13.63;;
45198;SDS011;30941;46.422;18.772;2023-03-01T15:47:46;24.10;;;14.20;;
45198;SDS011;30941;46.422;18.772;2023-03-01T15:50:18;26.17;;;15.15;;
45198;SDS011;30941;46.422;18.772;2023-03-01T15:52:45;29.75;;;15.90;;
45198;SDS011;30941;46.422;18.772;2023-03-01T15:55:20;25.85;;;15.23;;
45198;SDS011;30941;46.422;18.772;2023-03-01T15:57:47;23.50;;;14.18;;
45198;SDS011;30941;46.422;18.772;2023-03-01T16:00:14;27.38;;;15.25;;
45198;SDS011;30941;46.422;18.772;2023-03-01T16:02:41;25.63;;;16.65;;
45198;SDS011;30941;46.422;18.772;2023-03-01T16:05:18;29.45;;;15.93;;
45198;SDS011;30941;46.422;18.772;2023-03-01T16:07:45;24.67;;;15.00;;
45198;SDS011;30941;46.422;18.772;2023-03-01T16:10:11;35.45;;;17.05;;
45198;SDS011;30941;46.422;18.772;2023-03-01T16:12:37;30.45;;;16.83;;